Time;durP1;ratioP1;P1;durP2;ratioP2;P2;SDS_P1;SDS_P2;PMS_P1;PMS_P2;Temp;Humidity;BMP_temperature;BMP_pressure;BME280_temperature;BME280_humidity;BME280_pressure;Samples;Min_cycle;Max_cycle;Signal;HPM_P1;HPM_P2
2021/08/18 00:00:43;;;;;;;4.57;3.10;;;;;;;;;;5009630;28;21220;-60
2021/08/18 00:03:09;;;;;;;4.30;3.00;;;;;;;;;;5003063;28;20404;-60
2021/08/18 00:05:35;;;;;;;4.97;3.08;;;;;;;;;;5005575;28;20454;-60
2021/08/18 00:08:02;;;;;;;4.30;2.65;;;;;;;;;;5003853;28;20401;-60
2021/08/18 00:10:30;;;;;;;5.65;2.90;;;;;;;;;;5010202;28;20449;-60
2021/08/18 00:12:57;;;;;;;5.97;3.28;;;;;;;;;;5003746;28;20400;-59
2021/08/18 00:15:23;;;;;;;6.05;3.60;;;;;;;;;;5009589;28;20496;-60
2021/08/18 00:17:49;;;;;;;6.80;3.40;;;;;;;;;;5004632;28;20485;-60
2021/08/18 00:20:16;;;;;;;4.90;3.10;;;;;;;;;;5009517;28;20902;-60
2021/08/18 00:22:42;;;;;;;4.18;3.10;;;;;;;;;;5008846;28;20907;-60
2021/08/18 00:25:08;;;;;;;5.35;3.40;;;;;;;;;;5007525;28;20491;-59
2021/08/18 00:27:34;;;;;;;3.97;2.67;;;;;;;;;;5008986;28;20479;-60
2021/08/18 00:30:00;;;;;;;4.45;3.05;;;;;;;;;;5008073;28;20397;-60
2021/08/18 00:32:26;;;;;;;4.78;3.00;;;;;;;;;;4999747;28;20790;-60
2021/08/18 00:34:52;;;;;;;5.72;3.50;;;;;;;;;;5004134;28;20400;-60
2021/08/18 00:37:18;;;;;;;7.20;3.40;;;;;;;;;;5009067;28;20401;-60
2021/08/18 00:39:44;;;;;;;5.00;2.87;;;;;;;;;;5001379;28;20530;-60
2021/08/18 00:42:10;;;;;;;4.95;2.90;;;;;;;;;;5001802;28;20400;-60
2021/08/18 00:44:37;;;;;;;6.13;3.70;;;;;;;;;;5009384;28;20506;-60
2021/08/18 00:47:04;;;;;;;5.43;3.35;;;;;;;;;;5000771;28;20387;-59
2021/08/18 00:49:30;;;;;;;6.68;3.30;;;;;;;;;;4998911;28;20472;-60
2021/08/18 00:51:56;;;;;;;6.45;3.67;;;;;;;;;;5011544;28;20396;-60
2021/08/18 00:54:23;;;;;;;5.47;3.05;;;;;;;;;;5010994;28;20396;-60
2021/08/18 00:56:49;;;;;;;5.90;3.20;;;;;;;;;;5014138;28;20393;-60
2021/08/18 00:59:15;;;;;;;5.30;3.58;;;;;;;;;;5002770;28;20884;-60
2021/08/18 01:01:42;;;;;;;4.25;2.92;;;;;;;;;;5011946;28;20434;-60
2021/08/18 01:04:08;;;;;;;7.55;3.25;;;;;;;;;;5005176;28;20473;-60
2021/08/18 01:06:38;;;;;;;4.50;2.63;;;;;;;;;;5005276;28;20481;-60
2021/08/18 01:09:04;;;;;;;5.70;3.55;;;;;;;;;;5000124;28;20449;-60
2021/08/18 01:11:30;;;;;;;4.32;2.50;;;;;;;;;;5022011;28;20431;-60
2021/08/18 01:13:56;;;;;;;5.03;3.13;;;;;;;;;;5003796;28;20409;-59
2021/08/18 01:16:22;;;;;;;6.23;3.60;;;;;;;;;;5002488;28;20852;-60
2021/08/18 01:18:48;;;;;;;4.90;3.13;;;;;;;;;;5002489;28;20749;-60
2021/08/18 01:21:14;;;;;;;4.03;2.72;;;;;;;;;;5012906;28;20401;-60
2021/08/18 01:23:40;;;;;;;5.18;2.92;;;;;;;;;;4996845;28;20398;-60
2021/08/18 01:26:06;;;;;;;5.93;3.30;;;;;;;;;;5009902;28;21388;-60
2021/08/18 01:28:32;;;;;;;4.38;2.80;;;;;;;;;;5005684;28;20402;-60
2021/08/18 01:30:58;;;;;;;4.40;2.70;;;;;;;;;;5007301;28;20807;-60
2021/08/18 01:33:24;;;;;;;4.32;2.88;;;;;;;;;;5012583;28;20408;-60
2021/08/18 01:35:51;;;;;;;5.00;2.92;;;;;;;;;;5010199;28;20603;-60
2021/08/18 01:38:20;;;;;;;4.28;2.72;;;;;;;;;;5003991;28;20404;-60
2021/08/18 01:40:50;;;;;;;3.90;2.63;;;;;;;;;;5008266;28;20401;-60
2021/08/18 01:43:16;;;;;;;3.80;2.50;;;;;;;;;;5012564;28;20396;-60
2021/08/18 01:45:44;;;;;;;4.35;2.75;;;;;;;;;;5012014;28;20401;-60
2021/08/18 01:48:11;;;;;;;4.32;2.70;;;;;;;;;;5011232;28;20496;-60
2021/08/18 01:50:37;;;;;;;4.95;2.78;;;;;;;;;;5001085;28;20406;-60
2021/08/18 01:53:04;;;;;;;5.57;3.67;;;;;;;;;;5006825;28;20891;-60
2021/08/18 01:55:30;;;;;;;4.40;2.97;;;;;;;;;;5010137;28;20476;-60
2021/08/18 01:57:57;;;;;;;4.32;2.63;;;;;;;;;;4997300;28;20390;-60
2021/08/18 02:00:23;;;;;;;4.20;2.88;;;;;;;;;;5011679;28;20482;-60
2021/08/18 02:02:49;;;;;;;5.38;3.20;;;;;;;;;;5006077;28;20487;-59
2021/08/18 02:05:15;;;;;;;4.70;2.65;;;;;;;;;;4994351;28;20803;-59
2021/08/18 02:07:41;;;;;;;3.50;2.60;;;;;;;;;;5005322;28;20476;-60
2021/08/18 02:10:12;;;;;;;3.13;2.50;;;;;;;;;;5012148;28;20475;-60
2021/08/18 02:12:38;;;;;;;4.88;2.97;;;;;;;;;;5011194;28;20928;-60
2021/08/18 02:15:15;;;;;;;5.45;3.28;;;;;;;;;;5003768;28;20428;-60
2021/08/18 02:17:41;;;;;;;5.35;2.88;;;;;;;;;;5006725;28;20398;-60
2021/08/18 02:20:09;;;;;;;4.63;2.93;;;;;;;;;;5011484;28;20416;-60
2021/08/18 02:22:36;;;;;;;5.00;2.93;;;;;;;;;;5002370;28;20931;-60
2021/08/18 02:25:02;;;;;;;5.20;3.10;;;;;;;;;;5004341;28;20410;-60
2021/08/18 02:27:28;;;;;;;4.35;2.83;;;;;;;;;;5011302;28;20773;-60
2021/08/18 02:29:54;;;;;;;4.03;2.90;;;;;;;;;;5003238;28;20405;-60
2021/08/18 02:32:20;;;;;;;5.10;2.63;;;;;;;;;;5001870;28;20393;-60
2021/08/18 02:34:46;;;;;;;6.00;3.13;;;;;;;;;;5006783;28;20423;-60
2021/08/18 02:37:12;;;;;;;4.78;2.90;;;;;;;;;;5004314;28;20400;-59
2021/08/18 02:39:38;;;;;;;5.60;2.78;;;;;;;;;;5007690;28;20503;-60
2021/08/18 02:42:04;;;;;;;4.25;2.65;;;;;;;;;;5007001;28;20432;-60
2021/08/18 02:44:30;;;;;;;6.60;2.93;;;;;;;;;;4998255;28;20413;-60
2021/08/18 02:46:56;;;;;;;4.20;2.88;;;;;;;;;;5001632;28;20402;-60
2021/08/18 02:49:22;;;;;;;4.53;2.60;;;;;;;;;;4998486;28;20471;-60
2021/08/18 02:51:48;;;;;;;4.65;3.00;;;;;;;;;;5011181;28;20392;-60
2021/08/18 02:54:14;;;;;;;3.50;2.28;;;;;;;;;;5002780;28;20406;-59
2021/08/18 02:56:40;;;;;;;5.20;3.25;;;;;;;;;;5000132;28;20401;-60
2021/08/18 02:59:06;;;;;;;5.10;2.72;;;;;;;;;;5004490;28;20398;-60
2021/08/18 03:01:32;;;;;;;5.10;3.20;;;;;;;;;;5007901;28;20774;-60
2021/08/18 03:03:58;;;;;;;4.60;2.72;;;;;;;;;;5005049;28;20505;-60
2021/08/18 03:06:24;;;;;;;4.28;2.50;;;;;;;;;;5025835;28;20404;-60
2021/08/18 03:08:50;;;;;;;5.32;2.97;;;;;;;;;;5010745;28;20393;-60
2021/08/18 03:11:16;;;;;;;5.35;2.55;;;;;;;;;;5009419;28;20464;-60
2021/08/18 03:13:42;;;;;;;5.32;3.03;;;;;;;;;;5010983;28;20432;-60
2021/08/18 03:16:08;;;;;;;4.90;2.80;;;;;;;;;;5006607;28;20401;-60
2021/08/18 03:18:34;;;;;;;5.38;3.08;;;;;;;;;;4998975;28;20400;-60
2021/08/18 03:21:00;;;;;;;4.57;2.63;;;;;;;;;;5006937;28;20408;-60
2021/08/18 03:23:26;;;;;;;3.10;2.08;;;;;;;;;;5012426;28;20896;-60
2021/08/18 03:25:52;;;;;;;3.80;2.80;;;;;;;;;;5010945;28;20475;-59
2021/08/18 03:28:18;;;;;;;3.60;2.58;;;;;;;;;;5008736;28;20483;-60
2021/08/18 03:30:44;;;;;;;5.53;3.28;;;;;;;;;;5015455;28;20952;-60
2021/08/18 03:33:10;;;;;;;5.47;3.10;;;;;;;;;;5006109;28;20400;-60
2021/08/18 03:35:36;;;;;;;5.78;2.30;;;;;;;;;;5009128;28;20396;-60
2021/08/18 03:38:02;;;;;;;3.87;2.40;;;;;;;;;;5006997;28;20396;-60
2021/08/18 03:40:28;;;;;;;5.68;3.47;;;;;;;;;;5010629;28;20990;-60
2021/08/18 03:42:54;;;;;;;5.10;2.97;;;;;;;;;;5006371;28;20396;-60
2021/08/18 03:45:20;;;;;;;3.60;2.47;;;;;;;;;;4994612;28;20801;-59
2021/08/18 03:47:46;;;;;;;4.72;3.00;;;;;;;;;;4994662;28;20420;-60
2021/08/18 03:50:12;;;;;;;4.05;2.67;;;;;;;;;;5000509;28;20446;-60
2021/08/18 03:52:40;;;;;;;4.22;2.65;;;;;;;;;;4998015;28;20389;-61
2021/08/18 03:55:06;;;;;;;5.07;3.10;;;;;;;;;;5006963;28;20474;-60
2021/08/18 03:57:32;;;;;;;5.68;2.95;;;;;;;;;;5006800;28;20524;-60
2021/08/18 03:59:59;;;;;;;4.15;2.65;;;;;;;;;;4996600;28;20418;-60
2021/08/18 04:02:25;;;;;;;6.30;3.10;;;;;;;;;;4995989;28;20388;-60
2021/08/18 04:04:51;;;;;;;5.57;2.70;;;;;;;;;;4996991;28;20404;-60
2021/08/18 04:07:17;;;;;;;4.80;2.70;;;;;;;;;;5002992;28;20396;-60
2021/08/18 04:09:43;;;;;;;4.43;2.78;;;;;;;;;;5008064;28;20881;-60
2021/08/18 04:12:09;;;;;;;3.40;2.20;;;;;;;;;;5000272;28;20396;-60
2021/08/18 04:14:35;;;;;;;4.13;2.75;;;;;;;;;;5007835;28;20401;-60
2021/08/18 04:17:01;;;;;;;3.07;2.00;;;;;;;;;;5006379;28;20504;-60
2021/08/18 04:19:27;;;;;;;4.65;2.67;;;;;;;;;;5001541;28;20496;-60
2021/08/18 04:21:53;;;;;;;4.10;2.75;;;;;;;;;;5006791;28;20929;-60
2021/08/18 04:24:19;;;;;;;5.00;3.05;;;;;;;;;;5008733;28;20404;-60
2021/08/18 04:26:45;;;;;;;4.50;2.72;;;;;;;;;;5002784;28;20384;-60
2021/08/18 04:29:11;;;;;;;4.47;2.77;;;;;;;;;;5010499;28;20428;-60
2021/08/18 04:31:38;;;;;;;4.68;2.50;;;;;;;;;;5004857;28;20970;-61
2021/08/18 04:34:04;;;;;;;4.57;2.72;;;;;;;;;;5009284;28;20434;-61
2021/08/18 04:36:29;;;;;;;3.30;2.20;;;;;;;;;;5009930;28;20405;-60
2021/08/18 04:38:55;;;;;;;4.40;2.83;;;;;;;;;;4996571;28;20409;-60
2021/08/18 04:41:21;;;;;;;3.53;2.40;;;;;;;;;;5010843;28;20435;-60
2021/08/18 04:43:47;;;;;;;5.43;2.78;;;;;;;;;;5009484;28;20936;-61
2021/08/18 04:46:13;;;;;;;3.53;2.15;;;;;;;;;;5007720;28;20525;-60
2021/08/18 04:48:39;;;;;;;4.65;2.50;;;;;;;;;;5003527;28;20921;-59
2021/08/18 04:51:05;;;;;;;3.50;2.40;;;;;;;;;;5009433;28;20400;-60
2021/08/18 04:53:31;;;;;;;4.50;2.67;;;;;;;;;;5012422;28;20471;-60
2021/08/18 04:55:57;;;;;;;3.40;2.25;;;;;;;;;;5009509;28;20401;-61
2021/08/18 04:58:23;;;;;;;4.15;2.47;;;;;;;;;;5003454;28;20396;-60
2021/08/18 05:00:49;;;;;;;4.05;2.33;;;;;;;;;;5008046;28;20981;-60
2021/08/18 05:03:15;;;;;;;4.57;2.45;;;;;;;;;;5010388;28;20807;-60
2021/08/18 05:05:42;;;;;;;4.80;2.50;;;;;;;;;;5008628;28;20403;-60
2021/08/18 05:08:08;;;;;;;4.85;2.80;;;;;;;;;;5008127;28;20799;-60
2021/08/18 05:10:35;;;;;;;6.40;2.70;;;;;;;;;;5021895;28;20424;-60
2021/08/18 05:13:01;;;;;;;4.68;2.63;;;;;;;;;;5013070;28;20440;-60
2021/08/18 05:15:28;;;;;;;4.22;2.50;;;;;;;;;;5001102;28;20408;-60
2021/08/18 05:17:54;;;;;;;4.70;2.70;;;;;;;;;;5002144;28;20430;-60
2021/08/18 05:20:22;;;;;;;4.65;2.50;;;;;;;;;;5002943;28;20449;-60
2021/08/18 05:22:49;;;;;;;4.67;2.23;;;;;;;;;;5005765;28;20880;-60
2021/08/18 05:25:15;;;;;;;4.82;2.50;;;;;;;;;;5017149;28;20397;-60
2021/08/18 05:27:42;;;;;;;3.75;2.17;;;;;;;;;;5011162;28;20409;-60
2021/08/18 05:30:09;;;;;;;3.40;2.10;;;;;;;;;;4999817;28;20400;-60
2021/08/18 05:32:35;;;;;;;3.47;1.98;;;;;;;;;;5010578;28;20867;-60
2021/08/18 05:35:01;;;;;;;3.72;2.28;;;;;;;;;;5006789;28;20519;-60
2021/08/18 05:37:27;;;;;;;4.03;2.20;;;;;;;;;;5007233;28;20475;-60
2021/08/18 05:39:53;;;;;;;2.72;1.38;;;;;;;;;;5003997;28;20920;-60
2021/08/18 05:42:19;;;;;;;4.47;2.30;;;;;;;;;;5012944;28;20798;-60
2021/08/18 05:44:45;;;;;;;5.22;2.50;;;;;;;;;;5003567;28;20393;-60
2021/08/18 05:47:11;;;;;;;3.07;2.10;;;;;;;;;;5008948;28;20398;-60
2021/08/18 05:49:37;;;;;;;3.47;2.20;;;;;;;;;;4999606;28;20505;-60
2021/08/18 05:52:03;;;;;;;3.67;1.77;;;;;;;;;;5009103;28;20404;-60
2021/08/18 05:54:29;;;;;;;4.43;2.22;;;;;;;;;;5007715;28;20415;-60
2021/08/18 05:56:55;;;;;;;4.10;2.30;;;;;;;;;;5008890;28;20397;-60
2021/08/18 05:59:21;;;;;;;3.08;1.80;;;;;;;;;;5010469;28;20405;-60
2021/08/18 06:01:47;;;;;;;3.63;1.77;;;;;;;;;;5002427;28;20388;-60
2021/08/18 06:04:13;;;;;;;4.70;2.37;;;;;;;;;;5007407;28;20950;-61
2021/08/18 06:06:39;;;;;;;3.97;2.13;;;;;;;;;;5007143;28;20483;-60
2021/08/18 06:09:05;;;;;;;2.60;1.65;;;;;;;;;;5007447;28;20423;-61
2021/08/18 06:11:31;;;;;;;3.50;1.90;;;;;;;;;;5005831;28;20908;-61
2021/08/18 06:13:57;;;;;;;2.55;1.50;;;;;;;;;;5005199;28;20397;-60
2021/08/18 06:16:25;;;;;;;3.10;1.90;;;;;;;;;;5010437;28;20752;-60
2021/08/18 06:18:51;;;;;;;3.72;2.00;;;;;;;;;;5009650;28;20480;-60
2021/08/18 06:21:17;;;;;;;3.20;1.92;;;;;;;;;;5011266;28;20851;-60
2021/08/18 06:23:46;;;;;;;4.28;2.38;;;;;;;;;;5010972;28;20396;-60
2021/08/18 06:26:13;;;;;;;2.95;1.90;;;;;;;;;;5010006;28;20404;-60
2021/08/18 06:28:39;;;;;;;2.67;1.70;;;;;;;;;;5009049;28;20396;-59
2021/08/18 06:31:04;;;;;;;2.60;1.45;;;;;;;;;;5010298;28;20952;-60
2021/08/18 06:33:30;;;;;;;3.53;1.67;;;;;;;;;;5011190;28;20405;-60
2021/08/18 06:35:56;;;;;;;2.95;1.75;;;;;;;;;;5007730;28;20792;-60
2021/08/18 06:38:22;;;;;;;2.10;1.13;;;;;;;;;;5009304;28;20399;-60
2021/08/18 06:40:48;;;;;;;3.70;1.65;;;;;;;;;;5009989;28;20911;-60
2021/08/18 06:43:14;;;;;;;2.63;1.50;;;;;;;;;;5005980;28;20650;-60
2021/08/18 06:45:40;;;;;;;2.40;1.30;;;;;;;;;;5006821;28;20443;-60
2021/08/18 06:48:06;;;;;;;2.30;1.30;;;;;;;;;;5009582;28;20439;-60
2021/08/18 06:50:32;;;;;;;3.00;1.48;;;;;;;;;;5010618;28;20490;-60
2021/08/18 06:52:58;;;;;;;1.92;1.05;;;;;;;;;;5010624;28;20408;-59
2021/08/18 06:55:24;;;;;;;1.92;1.20;;;;;;;;;;5004695;28;20442;-60
2021/08/18 06:57:50;;;;;;;3.55;1.38;;;;;;;;;;4998585;28;20385;-60
2021/08/18 07:00:17;;;;;;;1.88;1.08;;;;;;;;;;5011620;28;20411;-59
2021/08/18 07:02:49;;;;;;;1.65;1.13;;;;;;;;;;4998732;28;20385;-60
2021/08/18 07:05:15;;;;;;;2.53;1.40;;;;;;;;;;5011583;28;20389;-60
2021/08/18 07:07:41;;;;;;;2.78;1.38;;;;;;;;;;4998388;28;20373;-60
2021/08/18 07:10:07;;;;;;;2.50;1.30;;;;;;;;;;4999396;28;20403;-59
2021/08/18 07:12:33;;;;;;;2.08;1.10;;;;;;;;;;5010979;28;20397;-59
2021/08/18 07:14:59;;;;;;;2.10;1.10;;;;;;;;;;5011409;28;20482;-60
2021/08/18 07:17:25;;;;;;;1.60;1.00;;;;;;;;;;4998355;28;20427;-58
2021/08/18 07:19:51;;;;;;;2.30;1.10;;;;;;;;;;4998399;28;20437;-60
2021/08/18 07:22:17;;;;;;;1.73;0.90;;;;;;;;;;5005101;28;20382;-60
2021/08/18 07:24:43;;;;;;;2.70;1.20;;;;;;;;;;5004843;28;20389;-60
2021/08/18 07:27:09;;;;;;;1.53;0.83;;;;;;;;;;5005193;28;20891;-60
2021/08/18 07:29:35;;;;;;;1.90;1.08;;;;;;;;;;5008981;28;20451;-59
2021/08/18 07:32:01;;;;;;;2.25;1.17;;;;;;;;;;5008893;28;20381;-60
2021/08/18 07:34:27;;;;;;;3.63;1.10;;;;;;;;;;5026173;28;20895;-60
2021/08/18 07:36:53;;;;;;;2.10;1.30;;;;;;;;;;5006995;28;20398;-60
2021/08/18 07:39:19;;;;;;;2.78;1.33;;;;;;;;;;5002169;28;20391;-60
2021/08/18 07:41:45;;;;;;;2.28;1.08;;;;;;;;;;4998162;28;20396;-60
2021/08/18 07:44:11;;;;;;;2.17;1.05;;;;;;;;;;5000048;28;20854;-60
2021/08/18 07:46:37;;;;;;;2.97;1.10;;;;;;;;;;5008671;28;20395;-59
2021/08/18 07:49:03;;;;;;;2.03;1.27;;;;;;;;;;5010658;28;20384;-60
2021/08/18 07:51:29;;;;;;;1.63;1.00;;;;;;;;;;5000960;28;20411;-59
2021/08/18 07:53:55;;;;;;;2.42;0.95;;;;;;;;;;5011126;28;20420;-60
2021/08/18 07:56:21;;;;;;;1.13;0.75;;;;;;;;;;5010998;28;20393;-58
2021/08/18 07:58:47;;;;;;;2.42;1.00;;;;;;;;;;5006401;28;20403;-60
2021/08/18 08:01:12;;;;;;;1.60;1.00;;;;;;;;;;5009881;28;20518;-60
2021/08/18 08:03:38;;;;;;;1.63;0.80;;;;;;;;;;5006695;28;20385;-60
2021/08/18 08:06:04;;;;;;;1.52;0.88;;;;;;;;;;5010271;28;20391;-60
2021/08/18 08:08:30;;;;;;;1.88;1.10;;;;;;;;;;5006504;28;20907;-60
2021/08/18 08:10:56;;;;;;;1.40;0.90;;;;;;;;;;5002101;28;20413;-60
2021/08/18 08:13:22;;;;;;;1.20;0.80;;;;;;;;;;5003319;28;20405;-60
2021/08/18 08:15:48;;;;;;;1.35;0.80;;;;;;;;;;5008513;28;20394;-60
2021/08/18 08:18:14;;;;;;;1.67;0.90;;;;;;;;;;5011737;28;20414;-60
2021/08/18 08:20:41;;;;;;;1.45;0.80;;;;;;;;;;5001674;28;20437;-60
2021/08/18 08:23:07;;;;;;;1.42;0.82;;;;;;;;;;5002697;28;20827;-60
2021/08/18 08:25:33;;;;;;;1.58;1.00;;;;;;;;;;5013555;28;20596;-60
2021/08/18 08:27:59;;;;;;;2.40;1.10;;;;;;;;;;5007346;28;20500;-60
2021/08/18 08:30:25;;;;;;;1.40;0.98;;;;;;;;;;5009182;28;20560;-60
2021/08/18 08:32:51;;;;;;;1.77;0.95;;;;;;;;;;5006808;28;20472;-60
2021/08/18 08:35:17;;;;;;;1.10;0.70;;;;;;;;;;5029600;28;20479;-60
2021/08/18 08:37:43;;;;;;;1.40;0.88;;;;;;;;;;5003318;28;20461;-60
2021/08/18 08:40:09;;;;;;;1.97;1.10;;;;;;;;;;5007860;28;20418;-60
2021/08/18 08:42:38;;;;;;;1.43;0.90;;;;;;;;;;5005850;28;20427;-60
2021/08/18 08:45:05;;;;;;;1.90;0.75;;;;;;;;;;5001553;28;20732;-60
2021/08/18 08:47:34;;;;;;;1.23;0.70;;;;;;;;;;5002383;28;20394;-60
2021/08/18 08:50:00;;;;;;;1.67;1.00;;;;;;;;;;5008063;28;20378;-60
2021/08/18 08:52:27;;;;;;;1.02;0.73;;;;;;;;;;5010264;28;20484;-60
2021/08/18 08:54:53;;;;;;;1.80;1.00;;;;;;;;;;5007908;28;20941;-60
2021/08/18 08:57:19;;;;;;;1.00;0.63;;;;;;;;;;5007224;28;20400;-60
2021/08/18 08:59:45;;;;;;;1.70;0.80;;;;;;;;;;5013079;28;20888;-60
2021/08/18 09:02:12;;;;;;;1.75;0.75;;;;;;;;;;5001524;28;20790;-60
2021/08/18 09:04:46;;;;;;;1.63;0.87;;;;;;;;;;5013684;28;20741;-60
2021/08/18 09:07:16;;;;;;;1.08;0.70;;;;;;;;;;5000887;28;20426;-60
2021/08/18 09:09:50;;;;;;;1.35;0.65;;;;;;;;;;5004864;28;20415;-60
2021/08/18 09:12:17;;;;;;;1.03;0.70;;;;;;;;;;5007235;28;20429;-60
2021/08/18 09:14:43;;;;;;;1.27;0.70;;;;;;;;;;5004193;28;20450;-60
2021/08/18 09:17:28;;;;;;;1.23;0.80;;;;;;;;;;5000824;28;20468;-60
2021/08/18 09:19:58;;;;;;;2.07;1.00;;;;;;;;;;5000580;28;20406;-60
2021/08/18 09:22:24;;;;;;;0.93;0.67;;;;;;;;;;5007477;28;20413;-60
2021/08/18 09:24:50;;;;;;;1.40;0.80;;;;;;;;;;5007340;28;20873;-60
2021/08/18 09:27:24;;;;;;;1.60;0.80;;;;;;;;;;5007011;28;20458;-60
2021/08/18 09:29:50;;;;;;;1.30;0.70;;;;;;;;;;5006787;28;20381;-60
2021/08/18 09:32:24;;;;;;;1.80;0.90;;;;;;;;;;5002023;28;20396;-60
2021/08/18 09:34:51;;;;;;;1.90;0.80;;;;;;;;;;5013588;28;20389;-60
2021/08/18 09:37:17;;;;;;;1.20;0.80;;;;;;;;;;5006003;28;20390;-60
2021/08/18 09:39:43;;;;;;;1.02;0.75;;;;;;;;;;5006247;28;20420;-60
2021/08/18 09:42:26;;;;;;;1.10;0.80;;;;;;;;;;5001590;28;20440;-61
2021/08/18 09:44:52;;;;;;;1.52;0.60;;;;;;;;;;5000210;28;20405;-60
2021/08/18 09:47:18;;;;;;;1.27;0.50;;;;;;;;;;5003126;28;21294;-60
2021/08/18 09:49:44;;;;;;;1.07;0.63;;;;;;;;;;5006211;28;20386;-60
2021/08/18 09:52:15;;;;;;;1.10;0.70;;;;;;;;;;5006957;28;20398;-60
2021/08/18 09:54:41;;;;;;;1.15;0.80;;;;;;;;;;5008371;28;20383;-60
2021/08/18 09:57:07;;;;;;;1.23;0.63;;;;;;;;;;5004793;28;20399;-60
2021/08/18 09:59:37;;;;;;;0.90;0.60;;;;;;;;;;5012669;28;20413;-60
2021/08/18 10:02:03;;;;;;;1.20;0.60;;;;;;;;;;5001276;28;20387;-60
2021/08/18 10:04:29;;;;;;;1.58;0.63;;;;;;;;;;5011397;28;20485;-59
2021/08/18 10:06:55;;;;;;;1.00;0.52;;;;;;;;;;5000800;28;20405;-60
2021/08/18 10:09:21;;;;;;;1.37;0.63;;;;;;;;;;5005969;28;20555;-60
2021/08/18 10:11:47;;;;;;;0.85;0.60;;;;;;;;;;5005569;28;20388;-59
2021/08/18 10:14:13;;;;;;;1.73;0.68;;;;;;;;;;4999694;28;20392;-59
2021/08/18 10:16:39;;;;;;;0.60;0.50;;;;;;;;;;5000445;28;20453;-60
2021/08/18 10:19:06;;;;;;;0.95;0.60;;;;;;;;;;5005723;28;20390;-60
2021/08/18 10:21:33;;;;;;;0.90;0.60;;;;;;;;;;5005504;28;20523;-59
2021/08/18 10:24:00;;;;;;;0.82;0.52;;;;;;;;;;4998949;28;20509;-59
2021/08/18 10:26:34;;;;;;;0.80;0.60;;;;;;;;;;5012572;28;20403;-59
2021/08/18 10:29:06;;;;;;;1.48;0.60;;;;;;;;;;5011690;28;20404;-59
2021/08/18 10:31:41;;;;;;;1.10;0.70;;;;;;;;;;4999119;28;20386;-59
2021/08/18 10:34:11;;;;;;;1.02;0.60;;;;;;;;;;5011825;28;20932;-59
2021/08/18 10:36:48;;;;;;;1.25;0.60;;;;;;;;;;5010499;28;20407;-59
2021/08/18 10:39:20;;;;;;;0.90;0.50;;;;;;;;;;5002381;28;20760;-59
2021/08/18 10:41:58;;;;;;;1.88;0.75;;;;;;;;;;4999154;28;20389;-59
2021/08/18 10:44:34;;;;;;;1.75;0.63;;;;;;;;;;4999801;28;20386;-59
2021/08/18 10:47:19;;;;;;;1.02;0.60;;;;;;;;;;5000016;28;20456;-59
2021/08/18 10:49:49;;;;;;;1.70;0.60;;;;;;;;;;5010150;28;20485;-60
2021/08/18 10:52:35;;;;;;;0.60;0.40;;;;;;;;;;5011981;28;20851;-59
2021/08/18 10:55:01;;;;;;;1.20;0.60;;;;;;;;;;4998653;28;20736;-57
2021/08/18 10:57:38;;;;;;;1.90;0.75;;;;;;;;;;4999433;28;20378;-60
2021/08/18 11:00:07;;;;;;;1.23;0.60;;;;;;;;;;5011432;28;20428;-60
2021/08/18 11:02:53;;;;;;;1.33;0.65;;;;;;;;;;4998747;28;20387;-60
2021/08/18 11:05:23;;;;;;;1.00;0.52;;;;;;;;;;5011340;28;20389;-60
2021/08/18 11:08:04;;;;;;;1.90;0.70;;;;;;;;;;4998681;28;20849;-60
2021/08/18 11:10:31;;;;;;;0.88;0.60;;;;;;;;;;4998882;28;20890;-60
2021/08/18 11:12:58;;;;;;;1.75;0.60;;;;;;;;;;5003529;28;20402;-60
2021/08/18 11:15:24;;;;;;;1.52;0.88;;;;;;;;;;5005214;28;20415;-58
2021/08/18 11:17:51;;;;;;;1.38;0.88;;;;;;;;;;4999884;28;20381;-60
2021/08/18 11:20:18;;;;;;;1.20;0.60;;;;;;;;;;4998321;28;20409;-59
2021/08/18 11:22:44;;;;;;;1.40;0.80;;;;;;;;;;5002529;28;20862;-58
2021/08/18 11:25:13;;;;;;;2.03;0.85;;;;;;;;;;5007760;28;20385;-59
2021/08/18 11:27:39;;;;;;;1.42;0.90;;;;;;;;;;5003960;28;20535;-60
2021/08/18 11:30:06;;;;;;;2.13;0.82;;;;;;;;;;5008199;28;20430;-59
2021/08/18 11:32:32;;;;;;;1.90;0.73;;;;;;;;;;5001657;28;20876;-60
2021/08/18 11:34:58;;;;;;;1.58;0.88;;;;;;;;;;5011001;28;20393;-60
2021/08/18 11:37:26;;;;;;;2.10;0.97;;;;;;;;;;5010861;28;20856;-59
2021/08/18 11:39:56;;;;;;;1.83;0.95;;;;;;;;;;4997758;28;20418;-59
2021/08/18 11:42:23;;;;;;;2.35;1.00;;;;;;;;;;5002321;28;20410;-59
2021/08/18 11:45:15;;;;;;;1.08;0.75;;;;;;;;;;5028381;28;20419;-60
2021/08/18 11:47:41;;;;;;;1.48;0.93;;;;;;;;;;5010461;28;20393;-60
2021/08/18 11:50:13;;;;;;;2.67;1.10;;;;;;;;;;5009190;28;20405;-59
2021/08/18 11:52:39;;;;;;;0.75;0.50;;;;;;;;;;5011158;28;20413;-60
2021/08/18 11:55:05;;;;;;;1.05;0.70;;;;;;;;;;5011213;28;20471;-60
2021/08/18 11:57:32;;;;;;;1.33;0.70;;;;;;;;;;5000566;28;20937;-60
2021/08/18 12:00:01;;;;;;;2.40;0.80;;;;;;;;;;5010677;28;20444;-60
2021/08/18 12:02:28;;;;;;;2.58;0.90;;;;;;;;;;5009943;28;20827;-60
2021/08/18 12:04:57;;;;;;;0.77;0.60;;;;;;;;;;5010744;28;20428;-60
2021/08/18 12:07:27;;;;;;;1.30;0.90;;;;;;;;;;5005361;28;20897;-60
2021/08/18 12:10:11;;;;;;;1.17;0.60;;;;;;;;;;5001796;28;20497;-60
2021/08/18 12:12:37;;;;;;;1.77;0.80;;;;;;;;;;5010148;28;20385;-60
2021/08/18 12:15:16;;;;;;;1.50;0.70;;;;;;;;;;5009793;28;20468;-60
2021/08/18 12:17:43;;;;;;;1.25;0.70;;;;;;;;;;5010250;28;20487;-60
2021/08/18 12:20:27;;;;;;;1.45;0.75;;;;;;;;;;5010475;28;20412;-60
2021/08/18 12:22:53;;;;;;;1.63;0.70;;;;;;;;;;5002035;28;20432;-60
2021/08/18 12:25:19;;;;;;;1.65;0.75;;;;;;;;;;5003208;28;20472;-60
2021/08/18 12:27:45;;;;;;;1.90;0.60;;;;;;;;;;4994535;28;20483;-60
2021/08/18 12:30:12;;;;;;;1.15;0.65;;;;;;;;;;5002399;28;20402;-60
2021/08/18 12:32:39;;;;;;;0.80;0.52;;;;;;;;;;5010110;28;20392;-60
2021/08/18 12:35:10;;;;;;;0.50;0.30;;;;;;;;;;5007420;28;20960;-60
2021/08/18 12:37:38;;;;;;;0.90;0.50;;;;;;;;;;5010407;28;20407;-59
2021/08/18 12:40:04;;;;;;;1.40;0.65;;;;;;;;;;5005556;28;20404;-60
2021/08/18 12:42:32;;;;;;;0.82;0.50;;;;;;;;;;5010116;28;20401;-60
2021/08/18 12:45:09;;;;;;;0.70;0.52;;;;;;;;;;5005897;28;20390;-59
2021/08/18 12:47:55;;;;;;;0.70;0.40;;;;;;;;;;5009264;28;20487;-60
2021/08/18 12:50:38;;;;;;;1.05;0.45;;;;;;;;;;5013591;28;20384;-60
2021/08/18 12:53:05;;;;;;;1.63;0.43;;;;;;;;;;5009128;28;20411;-60
2021/08/18 12:55:33;;;;;;;0.90;0.38;;;;;;;;;;5010448;28;20404;-60
2021/08/18 12:57:59;;;;;;;0.65;0.40;;;;;;;;;;5012424;28;20887;-60
2021/08/18 13:00:27;;;;;;;1.13;0.57;;;;;;;;;;5013437;28;20416;-59
2021/08/18 13:02:53;;;;;;;1.07;0.57;;;;;;;;;;5014453;28;20888;-60
2021/08/18 13:05:19;;;;;;;1.40;0.60;;;;;;;;;;5017773;28;20861;-60
2021/08/18 13:07:45;;;;;;;0.90;0.52;;;;;;;;;;5013048;28;20385;-59
2021/08/18 13:10:11;;;;;;;0.80;0.50;;;;;;;;;;5010032;28;20906;-60
2021/08/18 13:12:38;;;;;;;0.80;0.40;;;;;;;;;;5006969;28;20422;-60
2021/08/18 13:15:05;;;;;;;0.73;0.43;;;;;;;;;;5005795;28;20761;-60
2021/08/18 13:17:31;;;;;;;1.00;0.50;;;;;;;;;;5013171;28;20404;-60
2021/08/18 13:19:57;;;;;;;0.60;0.30;;;;;;;;;;5011328;28;20444;-59
2021/08/18 13:22:23;;;;;;;1.13;0.50;;;;;;;;;;5013216;28;20483;-60
2021/08/18 13:24:50;;;;;;;0.68;0.30;;;;;;;;;;5012999;28;20438;-60
2021/08/18 13:27:16;;;;;;;0.82;0.47;;;;;;;;;;5009050;28;20771;-60
2021/08/18 13:29:42;;;;;;;0.47;0.30;;;;;;;;;;5005298;28;20405;-60
2021/08/18 13:32:08;;;;;;;0.40;0.30;;;;;;;;;;5012293;28;20406;-60
2021/08/18 13:34:34;;;;;;;2.70;0.70;;;;;;;;;;5005026;28;20504;-60
2021/08/18 13:37:00;;;;;;;1.40;0.60;;;;;;;;;;5013077;28;20477;-60
2021/08/18 13:39:26;;;;;;;3.20;0.65;;;;;;;;;;5012643;28;20499;-60
2021/08/18 13:41:52;;;;;;;0.93;0.50;;;;;;;;;;5005639;28;20404;-60
2021/08/18 13:44:18;;;;;;;1.08;0.50;;;;;;;;;;5010512;28;20403;-60
2021/08/18 13:46:46;;;;;;;2.78;0.40;;;;;;;;;;5007980;28;20512;-59
2021/08/18 13:49:13;;;;;;;0.95;0.47;;;;;;;;;;5012485;28;20393;-60
2021/08/18 13:51:39;;;;;;;0.67;0.30;;;;;;;;;;5007823;28;20452;-60
2021/08/18 13:54:05;;;;;;;0.57;0.40;;;;;;;;;;5003066;28;20405;-60
2021/08/18 13:56:31;;;;;;;0.40;0.22;;;;;;;;;;5012571;28;20396;-60
2021/08/18 13:58:57;;;;;;;0.52;0.30;;;;;;;;;;5006681;28;20405;-60
2021/08/18 14:01:23;;;;;;;1.27;0.57;;;;;;;;;;5008372;28;20415;-60
2021/08/18 14:03:49;;;;;;;1.17;0.60;;;;;;;;;;5026651;28;20411;-60
2021/08/18 14:06:15;;;;;;;0.98;0.35;;;;;;;;;;5002232;28;20766;-60
2021/08/18 14:08:42;;;;;;;0.57;0.30;;;;;;;;;;5008395;28;20423;-60
2021/08/18 14:11:08;;;;;;;0.60;0.30;;;;;;;;;;5006103;28;20800;-60
2021/08/18 14:13:35;;;;;;;0.80;0.50;;;;;;;;;;5006713;28;20546;-60
2021/08/18 14:16:01;;;;;;;0.60;0.40;;;;;;;;;;5012117;28;20487;-60
2021/08/18 14:18:27;;;;;;;0.80;0.40;;;;;;;;;;5007885;28;20421;-60
2021/08/18 14:20:53;;;;;;;0.50;0.30;;;;;;;;;;5011994;28;20484;-60
2021/08/18 14:23:22;;;;;;;0.90;0.57;;;;;;;;;;5012083;28;20499;-60
2021/08/18 14:25:48;;;;;;;0.40;0.30;;;;;;;;;;5010603;28;20416;-61
2021/08/18 14:28:14;;;;;;;3.47;0.63;;;;;;;;;;5011506;28;20956;-61
2021/08/18 14:30:40;;;;;;;0.60;0.38;;;;;;;;;;5010687;28;20400;-61
2021/08/18 14:33:06;;;;;;;0.75;0.30;;;;;;;;;;5010349;28;20459;-61
2021/08/18 14:35:32;;;;;;;0.70;0.40;;;;;;;;;;5011363;28;20873;-60
2021/08/18 14:37:58;;;;;;;0.63;0.30;;;;;;;;;;5007282;28;20938;-61
2021/08/18 14:40:24;;;;;;;0.90;0.32;;;;;;;;;;5011280;28;20412;-60
2021/08/18 14:42:50;;;;;;;0.83;0.47;;;;;;;;;;5011544;28;20392;-60